Terminal Aerodrome Forecast
Issued by NWS

Home | Current Version | Previous Version | Text Only | Print | Product List | Glossary On
Versions: 1 2 3 4 5 6 7 8 9 10 11 12 13 14 15 16 17
770
FTUS44 KLZK 300535
TAFHOT
TAF
KHOT 300535Z 3006/0106 10008KT P6SM VCTS SCT025 OVC040CB
      WS020/17045KT
      TEMPO 3006/3009 1SM TSRA BR OVC025CB
     FM300900 18012G19KT 5SM TSRA BR BKN015 OVC030CB
     FM301500 24009KT P6SM OVC040
     FM301900 25015G25KT P6SM BKN050
     FM010000 22010G20KT P6SM OVC120
      AMD NOT SKED=

USA.gov is the U.S. government's official web portal to all federal, state and local government web resources and services.